createdAt,value
2022-12-28T00:04:47.061Z,39.87
2022-12-28T00:14:58.795Z,43.45
2022-12-28T00:20:04.877Z,38.25
2022-12-28T00:25:11.315Z,38.05
2022-12-28T00:30:17.674Z,41.13
2022-12-28T00:35:24.066Z,45.88
2022-12-28T00:45:36.504Z,31.52
2022-12-28T00:50:43.679Z,43.35
2022-12-28T00:55:49.754Z,30.98
2022-12-28T01:00:56.235Z,34.35
2022-12-28T01:06:02.356Z,31.67
2022-12-28T01:11:18.666Z,43.03
2022-12-28T01:16:44.609Z,38.45
2022-12-28T01:21:54.097Z,37.15
2022-12-28T01:27:01.041Z,33.00
2022-12-28T01:32:07.310Z,33.95
2022-12-28T01:37:13.723Z,34.90
2022-12-28T01:47:35.301Z,27.38
2022-12-28T01:52:42.382Z,32.13
2022-12-28T02:03:00.210Z,32.50
2022-12-28T02:08:17.255Z,31.50
2022-12-28T02:13:24.262Z,30.55
2022-12-28T02:18:31.063Z,33.88
2022-12-28T02:23:42.853Z,30.02
2022-12-28T02:29:12.264Z,29.92
2022-12-28T02:34:22.498Z,29.65
2022-12-28T02:39:34.338Z,32.28
2022-12-28T02:44:59.196Z,46.25
2022-12-28T02:50:10.065Z,18.55
2022-12-28T02:55:40.237Z,31.38
2022-12-28T03:00:59.403Z,17.27
2022-12-28T03:06:44.031Z,26.05
2022-12-28T03:12:28.375Z,32.35
2022-12-28T03:17:53.375Z,28.80
2022-12-28T03:23:19.536Z,40.33
2022-12-28T03:28:45.717Z,27.03
2022-12-28T03:33:54.155Z,28.90
2022-12-28T03:39:13.217Z,32.70
2022-12-28T03:44:29.675Z,26.30
2022-12-28T03:49:35.911Z,30.35
2022-12-28T03:54:46.834Z,35.22
2022-12-28T03:59:57.478Z,44.38
2022-12-28T04:05:03.909Z,37.88
2022-12-28T04:10:11.117Z,40.00
2022-12-28T04:15:21.217Z,42.85
2022-12-28T04:20:27.448Z,42.17
2022-12-28T04:25:33.737Z,41.97
2022-12-28T04:30:40.214Z,47.28
2022-12-28T04:40:53.606Z,36.60
2022-12-28T04:46:08.396Z,46.90
2022-12-28T04:51:16.450Z,54.08
2022-12-28T04:56:25.353Z,52.75
2022-12-28T05:01:38.938Z,44.67
2022-12-28T05:06:51.783Z,34.80
2022-12-28T05:12:02.619Z,42.75
2022-12-28T05:17:20.184Z,35.10
2022-12-28T05:22:35.013Z,56.67
2022-12-28T05:27:51.061Z,46.85
2022-12-28T05:32:57.703Z,38.35
2022-12-28T05:38:16.709Z,42.40
2022-12-28T05:43:47.630Z,50.80
2022-12-28T05:48:57.205Z,34.17
2022-12-28T05:54:08.566Z,42.20
2022-12-28T05:59:16.642Z,46.58
2022-12-28T06:04:23.936Z,35.95
2022-12-28T06:09:36.351Z,35.13
2022-12-28T06:14:49.108Z,40.33
2022-12-28T06:19:57.665Z,34.60
2022-12-28T06:25:07.637Z,43.65
2022-12-28T06:30:14.752Z,28.35
2022-12-28T06:35:24.690Z,25.13
2022-12-28T06:40:54.549Z,35.50
2022-12-28T06:46:12.036Z,29.97
2022-12-28T06:51:23.335Z,24.45
2022-12-28T06:56:31.113Z,26.13
2022-12-28T07:01:41.875Z,23.00
2022-12-28T07:06:48.318Z,17.45
2022-12-28T07:17:01.711Z,14.40
2022-12-28T07:22:08.287Z,10.88
2022-12-28T07:27:14.947Z,8.00
2022-12-28T07:32:23.280Z,9.95
2022-12-28T07:37:36.421Z,6.40
2022-12-28T07:42:44.142Z,7.20
2022-12-28T07:47:51.104Z,6.90
2022-12-28T07:52:57.671Z,5.80
2022-12-28T08:03:14.850Z,5.13
2022-12-28T08:08:28.895Z,4.57
2022-12-28T08:13:37.536Z,3.60
2022-12-28T08:18:53.959Z,3.53
2022-12-28T08:24:00.989Z,5.13
2022-12-28T08:29:19.126Z,3.70
2022-12-28T08:34:28.749Z,4.15
2022-12-28T08:39:34.836Z,3.65
2022-12-28T08:44:41.601Z,3.47
2022-12-28T08:49:47.701Z,3.50
2022-12-28T08:54:54.523Z,4.40
2022-12-28T09:00:01.457Z,4.65
2022-12-28T09:05:11.810Z,4.03
2022-12-28T09:10:18.577Z,4.15
2022-12-28T09:15:25.164Z,4.70
2022-12-28T09:25:37.396Z,3.92
2022-12-28T09:30:44.308Z,5.13
2022-12-28T09:35:50.780Z,4.03
2022-12-28T09:40:57.606Z,4.07
2022-12-28T09:46:04.076Z,4.45
2022-12-28T09:56:21.655Z,3.55
2022-12-28T10:01:28.010Z,4.35
2022-12-28T10:06:38.574Z,5.05
2022-12-28T10:11:48.260Z,4.90
2022-12-28T10:16:56.270Z,5.80
2022-12-28T10:22:11.310Z,3.65
2022-12-28T10:27:33.284Z,6.50
2022-12-28T10:33:02.213Z,4.78
2022-12-28T10:38:26.697Z,3.85
2022-12-28T10:43:36.960Z,4.63
2022-12-28T10:48:52.305Z,4.05
2022-12-28T10:53:59.951Z,3.38
2022-12-28T10:59:16.847Z,4.85
2022-12-28T11:04:24.886Z,3.95
2022-12-28T11:09:40.684Z,4.18
2022-12-28T11:14:49.673Z,2.88
2022-12-28T11:19:59.491Z,4.32
2022-12-28T11:25:19.150Z,5.45
2022-12-28T11:30:30.751Z,4.13
2022-12-28T11:35:39.439Z,3.30
2022-12-28T11:40:53.714Z,3.45
2022-12-28T11:46:09.369Z,3.47
2022-12-28T11:51:24.276Z,2.77
2022-12-28T11:57:03.580Z,2.90
2022-12-28T12:02:29.255Z,3.08
2022-12-28T12:07:53.113Z,4.65
2022-12-28T12:13:01.926Z,2.38
2022-12-28T12:18:21.167Z,2.75
2022-12-28T12:23:51.709Z,3.17
2022-12-28T12:29:04.145Z,3.25
2022-12-28T12:34:31.069Z,3.65
2022-12-28T12:45:07.299Z,3.22
2022-12-28T12:50:22.916Z,3.03
2022-12-28T12:55:38.192Z,3.23
2022-12-28T13:00:54.692Z,3.70
2022-12-28T13:06:09.200Z,2.95
2022-12-28T13:11:24.930Z,2.38
2022-12-28T13:16:38.499Z,2.17
2022-12-28T13:21:49.360Z,2.70
2022-12-28T13:27:07.620Z,2.20
2022-12-28T13:32:39.094Z,2.35
2022-12-28T13:38:14.664Z,2.05
2022-12-28T13:43:42.012Z,2.92
2022-12-28T13:49:01.678Z,2.05
2022-12-28T13:54:16.569Z,2.60
2022-12-28T13:59:24.438Z,2.40
2022-12-28T14:04:52.307Z,2.95
2022-12-28T14:10:09.662Z,2.92
2022-12-28T14:15:27.217Z,2.28
2022-12-28T14:20:53.307Z,2.58
2022-12-28T14:26:35.467Z,2.20
2022-12-28T14:31:49.144Z,2.45
2022-12-28T14:42:37.182Z,2.67
2022-12-28T14:47:56.745Z,2.38
2022-12-28T14:53:20.660Z,2.45
2022-12-28T14:58:37.391Z,2.90
2022-12-28T15:04:02.327Z,2.30
2022-12-28T15:09:10.303Z,4.60
2022-12-28T15:14:22.474Z,2.15
2022-12-28T15:19:40.301Z,2.65
2022-12-28T15:24:57.679Z,4.30
2022-12-28T15:30:13.134Z,3.38
2022-12-28T15:35:26.689Z,4.10
2022-12-28T15:40:37.380Z,2.10
2022-12-28T15:45:45.018Z,2.75
2022-12-28T15:50:58.350Z,2.38
2022-12-28T15:56:11.428Z,2.72
2022-12-28T16:01:32.216Z,2.58
2022-12-28T16:06:45.358Z,3.97
2022-12-28T16:11:56.416Z,1.90
2022-12-28T16:17:03.446Z,2.53
2022-12-28T16:22:13.663Z,3.05
2022-12-28T16:27:31.893Z,3.78
2022-12-28T16:32:41.165Z,3.08
2022-12-28T16:37:46.988Z,4.37
2022-12-28T16:42:53.559Z,3.40
2022-12-28T16:53:06.896Z,3.72
2022-12-28T16:58:13.329Z,3.90
2022-12-28T17:03:19.238Z,3.55
2022-12-28T17:08:25.438Z,4.17
2022-12-28T17:18:37.812Z,5.00
2022-12-28T17:23:44.000Z,4.15
2022-12-28T17:28:50.217Z,4.50
2022-12-28T17:33:57.784Z,4.72
2022-12-28T17:39:04.112Z,5.60
2022-12-28T17:49:17.832Z,5.20
2022-12-28T17:54:23.731Z,4.28
2022-12-28T17:59:29.501Z,5.43
2022-12-28T18:04:36.311Z,5.47
2022-12-28T18:09:42.796Z,5.53
2022-12-28T18:14:48.918Z,7.28
2022-12-28T18:19:57.684Z,4.70
2022-12-28T18:25:04.007Z,4.97
2022-12-28T18:30:11.031Z,6.40
2022-12-28T18:35:17.171Z,5.88
2022-12-28T18:40:23.645Z,4.47
2022-12-28T18:50:35.005Z,7.30
2022-12-28T18:55:45.467Z,6.63
2022-12-28T19:00:52.008Z,6.72
2022-12-28T19:11:09.950Z,4.75
2022-12-28T19:16:19.395Z,6.22
2022-12-28T19:21:28.469Z,6.63
2022-12-28T19:26:35.547Z,3.80
2022-12-28T19:31:41.844Z,5.70
2022-12-28T19:36:48.359Z,8.23
2022-12-28T19:41:54.174Z,6.90
2022-12-28T19:47:01.089Z,9.05
2022-12-28T19:52:07.388Z,6.07
2022-12-28T19:57:13.397Z,6.82
2022-12-28T20:02:19.353Z,6.75
2022-12-28T20:07:25.888Z,6.65
2022-12-28T20:12:31.933Z,7.35
2022-12-28T20:17:38.029Z,5.28
2022-12-28T20:22:44.244Z,11.07
2022-12-28T20:32:55.862Z,7.57
2022-12-28T20:38:02.154Z,7.90
2022-12-28T20:43:26.506Z,7.35
2022-12-28T20:48:32.321Z,6.30
2022-12-28T20:53:38.335Z,11.37
2022-12-28T20:58:45.129Z,7.15
2022-12-28T21:03:51.644Z,7.35
2022-12-28T21:08:58.067Z,7.70
2022-12-28T21:14:03.872Z,9.93
2022-12-28T21:19:10.096Z,5.90
2022-12-28T21:24:16.116Z,5.97
2022-12-28T21:29:25.809Z,10.57
2022-12-28T21:34:32.308Z,5.70
2022-12-28T21:39:38.486Z,7.67
2022-12-28T21:44:44.079Z,6.90
2022-12-28T21:49:50.095Z,9.23
2022-12-28T21:54:56.167Z,9.88
2022-12-28T22:00:21.800Z,8.50
2022-12-28T22:05:43.364Z,8.00
2022-12-28T22:11:08.009Z,8.10
2022-12-28T22:16:14.008Z,8.48
2022-12-28T22:21:20.548Z,10.13
2022-12-28T22:31:32.641Z,9.73
2022-12-28T22:36:38.895Z,8.57
2022-12-28T22:41:45.177Z,7.67
2022-12-28T22:51:56.955Z,8.75
2022-12-28T22:57:02.901Z,10.13
2022-12-28T23:02:09.536Z,8.68
2022-12-28T23:07:16.194Z,7.20
2022-12-28T23:17:28.472Z,9.98
2022-12-28T23:22:53.943Z,7.88
2022-12-28T23:28:02.226Z,10.82
2022-12-28T23:33:08.305Z,6.25
2022-12-28T23:38:14.126Z,7.82
2022-12-28T23:43:20.077Z,8.03
2022-12-28T23:48:26.552Z,8.23
2022-12-28T23:58:38.105Z,6.95
